• Join FlightAware (Why Join?)
  • Login
  • US Flag 
04:26AM EST


 

Airport Tracker/Info


-or-


 

Live Flight TrackerFlight Track Log ✈ N502QS ✈ 17-Nov-2013 ✈ KBFI - KTRK

Flight Track Log - Related Links

Times and Time Zones

All times are in EST time to prevent confusion due to time zone crossing. See the N502QS flight status page for this flight to view local times or setup timezone preferences in your user account.

Time Position Orientation Groundspeed Altitude Reporting Facility
EST Latitude Longitude Course Direction KTS MPH feet Rate Location/Type
01:41PM 47.5197 -122.2933 146° Southeast 160 184 1,600  Level Seattle Center
01:41PM 47.5067 -122.2803 146° Southeast 174 200 2,100 2,880 Climbing Seattle Center
01:42PM 47.4633 -122.2294 142° Southeast 194 223 5,400 3,180 Climbing Seattle Center
01:43PM 47.4014 -122.1883 156° South 251 289 8,600 3,240 Climbing Seattle Center
01:44PM 47.3297 -122.1625 166° South 265 305 12,000 2,700 Climbing Seattle Center
01:45PM 47.2317 -122.1258 166° South 342 394 14,200 2,340 Climbing Seattle Center
01:46PM 47.1308 -122.0897 166° South 377 434 16,800 2,280 Climbing Seattle Center
01:47PM 47.0294 -122.0525 166° South 405 466 18,900 2,520 Climbing Seattle Center
01:48PM 46.9094 -122.0106 167° South 437 503 22,000 3,000 Climbing Seattle Center
01:49PM 46.7875 -121.9658 166° South 450 518 25,000 2,700 Climbing Seattle Center
01:50PM 46.6606 -121.9200 166° South 467 537 27,500 2,520 Climbing Seattle Center
01:51PM 46.5281 -121.8711 166° South 487 560 30,200 2,760 Climbing Seattle Center
01:52PM 46.3956 -121.8233 166° South 491 565 33,200 3,360 Climbing Seattle Center
01:53PM 46.2397 -121.7681 166° South 480 552 37,100 2,940 Climbing Seattle Center
01:54PM 46.1289 -121.7289 166° South 469 540 39,200 1,800 Climbing Seattle Center
01:55PM 46.0047 -121.6864 167° South 461 531 40,800 840 Climbing Seattle Center
01:56PM 45.8750 -121.6397 166° South 482 555 41,000 60 Climbing Seattle Center
01:57PM 45.7403 -121.5931 166° South 498 573 41,000  Level Seattle Center
01:58PM 45.6058 -121.5447 166° South 500 575 41,000  Level Seattle Center
01:59PM 45.4433 -121.4906 167° South 501 577 41,000  Level Seattle Center
02:00PM 45.3114 -121.4444 166° South 494 568 41,000  Level Seattle Center
02:01PM 45.1789 -121.4008 167° South 492 566 41,000  Level Seattle Center
02:02PM 45.0444 -121.3553 167° South 494 568 41,000  Level Seattle Center
02:03PM 44.9106 -121.3092 166° South 498 573 41,000  Level Seattle Center
02:04PM 44.7775 -121.2653 167° South 496 571 41,000  Level Seattle Center
02:05PM 44.6447 -121.2203 166° South 495 570 41,000  Level Seattle Center
02:06PM 44.5083 -121.1756 167° South 495 570 41,000  Level Seattle Center
02:07PM 44.3733 -121.1311 167° South 495 570 41,000  Level Seattle Center
02:08PM 44.2447 -121.0878 166° South 496 571 41,000  Level Seattle Center
02:09PM 44.1117 -121.0453 167° South 495 570 41,000  Level Seattle Center
02:10PM 43.9511 -120.9919 167° South 496 571 41,000  Level Seattle Center
02:11PM 43.8189 -120.9481 167° South 493 567 41,000  Level Seattle Center
02:12PM 43.6861 -120.9069 167° South 491 565 41,000  Level Seattle Center
02:13PM 43.5633 -120.8683 167° South 503 579 41,000  Level Seattle Center
02:14PM 43.4294 -120.8239 166° South 498 573 41,000  Level Seattle Center
02:15PM 43.2967 -120.7839 168° South 491 565 41,000  Level Seattle Center
02:16PM 43.1350 -120.7308 167° South 494 568 41,000  Level Seattle Center
02:17PM 43.0033 -120.6908 167° South 486 559 41,000  Level Seattle Center
02:18PM 42.8719 -120.6489 167° South 485 558 41,000  Level Seattle Center
02:19PM 42.7408 -120.6094 168° South 485 558 41,000  Level Seattle Center
02:20PM 42.6083 -120.5686 167° South 485 558 41,000  Level Seattle Center
02:21PM 42.4747 -120.5272 167° South 490 564 41,000  Level Seattle Center
02:23PM 42.3411 -120.4853 167° South 492 566 41,000  Level Seattle Center
02:24PM 42.2092 -120.4447 167° South 487 560 41,000  Level Seattle Center
02:25PM 42.0767 -120.4050 167° South 487 560 41,000  Level Seattle Center
02:26PM 41.9450 -120.3631 167° South 486 559 41,000  Level Seattle Center
02:27PM 41.8139 -120.3233 167° South 483 556 41,000  Level Seattle Center
02:28PM 41.6803 -120.2844 168° South 488 562 41,000  Level Seattle Center
02:29PM 41.5472 -120.2447 167° South 490 564 41,000  Level Seattle Center
02:30PM 41.4156 -120.2056 167° South 486 559 41,000  Level Seattle Center
02:31PM 41.2856 -120.1664 167° South 479 551 41,000 -600 Level Seattle Center
02:32PM 41.1553 -120.1267 167° South 479 551 39,900 -2,160 Descending Seattle Center
02:33PM 40.9956 -120.0800 168° South 488 562 36,700 -3,240 Descending Seattle Center
02:34PM 40.8586 -120.0394 167° South 500 575 33,400 -3,300 Descending Seattle Center
02:34PM 40.7483 -120.0056 167° South 515 593 30,800 -1,920 Descending Oakland Center
02:36PM 40.6042 -119.9633 167° South 527 606 30,000 -420 Descending Oakland Center
02:37PM 40.4633 -119.9231 168° South 526 605 30,000 -660 Level Oakland Center
02:38PM 40.3208 -119.8831 168° South 524 603 28,700 -2,100 Descending Oakland Center
02:39PM 40.1847 -119.8414 167° South 507 583 25,800 -3,000 Descending Oakland Center
02:40PM 40.0531 -119.8050 168° South 489 563 22,600 -3,480 Descending Oakland Center
02:41PM 39.9067 -119.7631 168° South 452 520 18,700 -3,240 Descending Oakland Center
02:42PM 39.7919 -119.7581 178° South 426 490 16,000 -1,320 Descending Oakland Center
02:43PM 39.7133 -119.8458 221° Southwest 388 447 16,000  Level Oakland Center
02:44PM 39.6561 -119.9478 234° Southwest 355 409 16,000  Level Oakland Center
02:45PM 39.6075 -120.0344 234° Southwest 307 353 16,000  Level Oakland Center
02:46PM 39.5642 -120.1117 234° Southwest 272 313 16,000  Level Oakland Center
02:47PM 39.5233 -120.1806 232° Southwest 254 292 16,000 -840 Level Oakland Center
02:48PM 39.4811 -120.2411 228° Southwest 238 274 14,300 -1,620 Descending Oakland Center
02:49PM 39.4522 -120.3161 244° Southwest 236 272 12,700 -1,740 Descending Oakland Center
02:50PM 39.3908 -120.2944 165° South 216 249 10,800 -1,620 Descending Oakland Center
02:51PM 39.3731 -120.2625 126° Southeast 171 197 9,400 -1,380 Descending Oakland Center